sensor_id;sensor_type;location;lat;lon;timestamp;pressure;altitude;pressure_sealevel;temperature;humidity
75668;BME280;64266;48.798;44.756;2023-07-29T00:04:15;100203.72;;;23.36;60.50
75668;BME280;64266;48.798;44.756;2023-07-29T00:09:19;100166.63;;;23.37;59.41
75668;BME280;64266;48.798;44.756;2023-07-29T00:14:21;100153.06;;;23.19;59.81
75668;BME280;64266;48.798;44.756;2023-07-29T00:19:24;100171.53;;;23.26;59.79
75668;BME280;64266;48.798;44.756;2023-07-29T00:24:27;100226.16;;;23.37;59.64
75668;BME280;64266;48.798;44.756;2023-07-29T00:29:30;100247.09;;;23.14;60.13
75668;BME280;64266;48.798;44.756;2023-07-29T00:34:34;100247.66;;;22.94;60.43
75668;BME280;64266;48.798;44.756;2023-07-29T00:39:38;100272.44;;;22.87;60.86
75668;BME280;64266;48.798;44.756;2023-07-29T00:44:41;100266.97;;;22.70;60.91
75668;BME280;64266;48.798;44.756;2023-07-29T00:49:45;100312.34;;;22.82;60.65
75668;BME280;64266;48.798;44.756;2023-07-29T00:54:47;100265.38;;;22.55;60.74
75668;BME280;64266;48.798;44.756;2023-07-29T00:59:50;100254.72;;;22.50;60.61
75668;BME280;64266;48.798;44.756;2023-07-29T01:04:55;100289.53;;;22.74;60.78
75668;BME280;64266;48.798;44.756;2023-07-29T01:10:03;100298.03;;;22.81;60.25
75668;BME280;64266;48.798;44.756;2023-07-29T01:15:25;100269.16;;;22.68;60.16
75668;BME280;64266;48.798;44.756;2023-07-29T01:20:33;100238.97;;;22.75;59.64
75668;BME280;64266;48.798;44.756;2023-07-29T01:25:36;100259.19;;;22.77;59.60
75668;BME280;64266;48.798;44.756;2023-07-29T01:30:43;100295.28;;;22.73;58.95
75668;BME280;64266;48.798;44.756;2023-07-29T01:35:49;100323.72;;;22.70;59.91
75668;BME280;64266;48.798;44.756;2023-07-29T01:40:53;100304.19;;;22.37;59.42
75668;BME280;64266;48.798;44.756;2023-07-29T01:45:58;100361.97;;;22.63;59.92
75668;BME280;64266;48.798;44.756;2023-07-29T01:51:01;100334.78;;;22.46;60.03
75668;BME280;64266;48.798;44.756;2023-07-29T01:56:05;100328.97;;;22.53;60.10
75668;BME280;64266;48.798;44.756;2023-07-29T02:01:10;100284.75;;;22.27;59.28
75668;BME280;64266;48.798;44.756;2023-07-29T02:06:13;100267.22;;;22.24;59.17
75668;BME280;64266;48.798;44.756;2023-07-29T02:11:15;100314.03;;;22.55;58.78
75668;BME280;64266;48.798;44.756;2023-07-29T02:16:20;100308.38;;;22.43;58.78
75668;BME280;64266;48.798;44.756;2023-07-29T02:21:24;100270.47;;;22.12;58.56
75668;BME280;64266;48.798;44.756;2023-07-29T02:26:27;100338.00;;;22.48;58.40
75668;BME280;64266;48.798;44.756;2023-07-29T02:31:30;100331.13;;;22.42;58.88
75668;BME280;64266;48.798;44.756;2023-07-29T02:36:34;100311.25;;;22.25;58.88
75668;BME280;64266;48.798;44.756;2023-07-29T02:41:39;100338.84;;;22.35;58.70
75668;BME280;64266;48.798;44.756;2023-07-29T02:46:42;100347.75;;;22.36;58.42
75668;BME280;64266;48.798;44.756;2023-07-29T02:51:47;100303.41;;;22.14;58.62
75668;BME280;64266;48.798;44.756;2023-07-29T02:56:50;100298.81;;;22.01;59.19
75668;BME280;64266;48.798;44.756;2023-07-29T03:01:55;100304.22;;;22.01;58.88
75668;BME280;64266;48.798;44.756;2023-07-29T03:06:59;100303.81;;;22.08;59.16
75668;BME280;64266;48.798;44.756;2023-07-29T03:12:04;100309.31;;;22.39;58.84
75668;BME280;64266;48.798;44.756;2023-07-29T03:17:08;100308.00;;;22.58;57.81
75668;BME280;64266;48.798;44.756;2023-07-29T03:22:12;100239.19;;;22.64;57.25
75668;BME280;64266;48.798;44.756;2023-07-29T03:27:15;100295.16;;;23.17;56.30
75668;BME280;64266;48.798;44.756;2023-07-29T03:32:18;100296.69;;;23.32;55.68
75668;BME280;64266;48.798;44.756;2023-07-29T03:37:20;100295.28;;;23.99;53.47
75668;BME280;64266;48.798;44.756;2023-07-29T03:42:23;100285.91;;;24.31;52.94
75668;BME280;64266;48.798;44.756;2023-07-29T03:47:27;100280.19;;;25.05;50.81
75668;BME280;64266;48.798;44.756;2023-07-29T03:52:31;100281.41;;;26.04;47.56
75668;BME280;64266;48.798;44.756;2023-07-29T03:57:34;100269.13;;;26.72;46.47
75668;BME280;64266;48.798;44.756;2023-07-29T04:02:37;100294.41;;;27.41;45.64
75668;BME280;64266;48.798;44.756;2023-07-29T04:07:41;100231.34;;;27.15;44.54
75668;BME280;64266;48.798;44.756;2023-07-29T04:12:44;100261.06;;;27.57;44.35
75668;BME280;64266;48.798;44.756;2023-07-29T04:17:51;100277.16;;;27.74;44.35
75668;BME280;64266;48.798;44.756;2023-07-29T04:22:54;100284.59;;;28.01;44.42
75668;BME280;64266;48.798;44.756;2023-07-29T04:27:58;100281.97;;;28.17;43.48
75668;BME280;64266;48.798;44.756;2023-07-29T04:33:01;100299.31;;;28.52;42.46
75668;BME280;64266;48.798;44.756;2023-07-29T04:38:03;100273.81;;;28.88;42.23
75668;BME280;64266;48.798;44.756;2023-07-29T04:43:06;100289.94;;;29.40;41.71
75668;BME280;64266;48.798;44.756;2023-07-29T04:48:09;100270.59;;;28.70;41.71
75668;BME280;64266;48.798;44.756;2023-07-29T04:53:11;100252.63;;;27.86;43.54
75668;BME280;64266;48.798;44.756;2023-07-29T04:58:14;100300.88;;;28.37;42.89
75668;BME280;64266;48.798;44.756;2023-07-29T05:03:18;100236.66;;;28.56;42.51
75668;BME280;64266;48.798;44.756;2023-07-29T05:08:21;100262.59;;;29.90;39.84
75668;BME280;64266;48.798;44.756;2023-07-29T05:13:25;100273.84;;;31.07;38.04
75668;BME280;64266;48.798;44.756;2023-07-29T05:18:27;100268.56;;;30.15;39.23
75668;BME280;64266;48.798;44.756;2023-07-29T05:23:30;100261.38;;;28.75;42.25
75668;BME280;64266;48.798;44.756;2023-07-29T05:28:33;100266.25;;;29.44;41.28
75668;BME280;64266;48.798;44.756;2023-07-29T05:33:36;100273.94;;;28.64;42.55
75668;BME280;64266;48.798;44.756;2023-07-29T05:38:40;100255.41;;;29.16;41.25
75668;BME280;64266;48.798;44.756;2023-07-29T05:43:43;100258.38;;;29.11;42.20
75668;BME280;64266;48.798;44.756;2023-07-29T05:48:48;100266.25;;;28.53;42.97
75668;BME280;64266;48.798;44.756;2023-07-29T05:53:50;100259.91;;;28.22;44.26
75668;BME280;64266;48.798;44.756;2023-07-29T05:58:54;100256.03;;;28.50;44.42
75668;BME280;64266;48.798;44.756;2023-07-29T06:03:58;100262.09;;;29.03;42.99
75668;BME280;64266;48.798;44.756;2023-07-29T06:09:00;100247.16;;;28.26;44.57
75668;BME280;64266;48.798;44.756;2023-07-29T06:14:03;100246.75;;;29.30;41.89
75668;BME280;64266;48.798;44.756;2023-07-29T06:19:07;100242.44;;;29.29;41.62
75668;BME280;64266;48.798;44.756;2023-07-29T06:24:11;100235.69;;;29.92;40.58
75668;BME280;64266;48.798;44.756;2023-07-29T06:29:14;100252.16;;;29.61;41.22
75668;BME280;64266;48.798;44.756;2023-07-29T06:34:17;100244.38;;;28.66;43.31
75668;BME280;64266;48.798;44.756;2023-07-29T06:39:20;100227.59;;;27.96;44.46
75668;BME280;64266;48.798;44.756;2023-07-29T06:44:23;100234.03;;;27.39;46.09
75668;BME280;64266;48.798;44.756;2023-07-29T06:49:25;100229.28;;;26.88;47.98
75668;BME280;64266;48.798;44.756;2023-07-29T06:54:28;100222.75;;;26.68;48.93
75668;BME280;64266;48.798;44.756;2023-07-29T06:59:31;100247.69;;;27.15;48.69
75668;BME280;64266;48.798;44.756;2023-07-29T07:04:34;100238.94;;;27.22;47.99
75668;BME280;64266;48.798;44.756;2023-07-29T07:09:37;100243.03;;;27.16;48.83
75668;BME280;64266;48.798;44.756;2023-07-29T07:14:39;100230.63;;;27.67;47.35
75668;BME280;64266;48.798;44.756;2023-07-29T07:19:43;100200.28;;;27.80;47.71
75668;BME280;64266;48.798;44.756;2023-07-29T07:24:46;100182.19;;;29.06;44.49
75668;BME280;64266;48.798;44.756;2023-07-29T07:29:49;100194.06;;;30.22;41.44
75668;BME280;64266;48.798;44.756;2023-07-29T07:34:53;100188.97;;;29.82;40.90
75668;BME280;64266;48.798;44.756;2023-07-29T07:39:55;100192.16;;;29.49;41.53
75668;BME280;64266;48.798;44.756;2023-07-29T07:44:58;100186.88;;;28.90;42.90
75668;BME280;64266;48.798;44.756;2023-07-29T07:50:02;100161.84;;;28.41;44.79
75668;BME280;64266;48.798;44.756;2023-07-29T07:55:07;100173.22;;;28.15;44.90
75668;BME280;64266;48.798;44.756;2023-07-29T08:00:10;100155.13;;;27.95;44.37
75668;BME280;64266;48.798;44.756;2023-07-29T08:05:14;100141.91;;;28.09;44.43
75668;BME280;64266;48.798;44.756;2023-07-29T08:10:16;100167.06;;;27.63;45.43
75668;BME280;64266;48.798;44.756;2023-07-29T08:15:19;100196.97;;;27.11;52.67
75668;BME280;64266;48.798;44.756;2023-07-29T08:20:21;100222.41;;;25.33;69.00
75668;BME280;64266;48.798;44.756;2023-07-29T08:25:24;100192.16;;;23.79;72.59
75668;BME280;64266;48.798;44.756;2023-07-29T08:30:28;100197.53;;;23.44;76.15
75668;BME280;64266;48.798;44.756;2023-07-29T08:35:30;100189.59;;;23.39;77.54
75668;BME280;64266;48.798;44.756;2023-07-29T08:40:34;100180.84;;;23.42;75.84
75668;BME280;64266;48.798;44.756;2023-07-29T08:45:38;100165.41;;;23.86;77.62
75668;BME280;64266;48.798;44.756;2023-07-29T08:50:44;100178.13;;;24.28;71.74
75668;BME280;64266;48.798;44.756;2023-07-29T08:55:48;100168.03;;;24.54;71.40
75668;BME280;64266;48.798;44.756;2023-07-29T09:00:51;100205.00;;;24.59;73.72
75668;BME280;64266;48.798;44.756;2023-07-29T09:05:56;100179.25;;;24.18;72.28
75668;BME280;64266;48.798;44.756;2023-07-29T09:10:59;100194.56;;;23.80;84.71
75668;BME280;64266;48.798;44.756;2023-07-29T09:16:03;100176.25;;;23.68;87.57
75668;BME280;64266;48.798;44.756;2023-07-29T09:21:06;100169.53;;;23.92;89.16
75668;BME280;64266;48.798;44.756;2023-07-29T09:26:10;100142.16;;;23.93;83.83
75668;BME280;64266;48.798;44.756;2023-07-29T09:31:21;100142.16;;;23.93;78.81
75668;BME280;64266;48.798;44.756;2023-07-29T09:36:25;100132.28;;;23.80;80.52
75668;BME280;64266;48.798;44.756;2023-07-29T09:41:29;100143.72;;;23.94;80.87
75668;BME280;64266;48.798;44.756;2023-07-29T09:46:36;100169.72;;;23.95;80.78
75668;BME280;64266;48.798;44.756;2023-07-29T09:51:41;100150.44;;;23.45;83.80
75668;BME280;64266;48.798;44.756;2023-07-29T09:56:43;100111.59;;;23.50;88.29
75668;BME280;64266;48.798;44.756;2023-07-29T10:01:47;100144.81;;;24.19;90.39
75668;BME280;64266;48.798;44.756;2023-07-29T10:06:51;100132.66;;;24.34;88.57
75668;BME280;64266;48.798;44.756;2023-07-29T10:11:57;100134.84;;;24.49;86.33
75668;BME280;64266;48.798;44.756;2023-07-29T10:17:00;100152.91;;;24.91;85.03
75668;BME280;64266;48.798;44.756;2023-07-29T10:22:06;100130.13;;;25.04;79.47
75668;BME280;64266;48.798;44.756;2023-07-29T10:27:10;100127.91;;;25.06;70.83
75668;BME280;64266;48.798;44.756;2023-07-29T10:32:13;100158.53;;;25.36;73.64
75668;BME280;64266;48.798;44.756;2023-07-29T10:37:17;100165.94;;;25.48;69.50
75668;BME280;64266;48.798;44.756;2023-07-29T10:42:20;100185.59;;;25.74;68.05
75668;BME280;64266;48.798;44.756;2023-07-29T10:47:27;100149.50;;;25.53;64.55
75668;BME280;64266;48.798;44.756;2023-07-29T10:52:40;100166.44;;;25.70;62.77
75668;BME280;64266;48.798;44.756;2023-07-29T10:57:45;100182.81;;;25.82;61.93
75668;BME280;64266;48.798;44.756;2023-07-29T11:02:59;100198.44;;;25.85;64.24
75668;BME280;64266;48.798;44.756;2023-07-29T11:13:22;100172.47;;;25.55;64.41
75668;BME280;64266;48.798;44.756;2023-07-29T11:18:33;100205.47;;;25.86;64.88
75668;BME280;64266;48.798;44.756;2023-07-29T11:23:37;100174.19;;;25.80;62.68
75668;BME280;64266;48.798;44.756;2023-07-29T11:28:40;100162.72;;;25.96;61.34
75668;BME280;64266;48.798;44.756;2023-07-29T11:33:43;100163.06;;;26.06;60.42
75668;BME280;64266;48.798;44.756;2023-07-29T11:38:46;100188.78;;;26.29;59.43
75668;BME280;64266;48.798;44.756;2023-07-29T11:43:49;100132.94;;;25.99;58.46
75668;BME280;64266;48.798;44.756;2023-07-29T11:48:56;100180.25;;;26.19;57.49
75668;BME280;64266;48.798;44.756;2023-07-29T11:53:59;100196.91;;;26.17;58.64
75668;BME280;64266;48.798;44.756;2023-07-29T11:59:03;100190.88;;;25.91;60.61
75668;BME280;64266;48.798;44.756;2023-07-29T12:04:06;100189.41;;;25.94;56.94
75668;BME280;64266;48.798;44.756;2023-07-29T12:09:09;100183.06;;;25.90;58.26
75668;BME280;64266;48.798;44.756;2023-07-29T12:14:13;100208.50;;;25.64;57.98
75668;BME280;64266;48.798;44.756;2023-07-29T12:19:16;100176.41;;;25.37;58.25
75668;BME280;64266;48.798;44.756;2023-07-29T12:24:22;100195.81;;;25.48;57.99
75668;BME280;64266;48.798;44.756;2023-07-29T12:29:26;100188.97;;;25.71;58.97
75668;BME280;64266;48.798;44.756;2023-07-29T12:34:31;100209.91;;;25.91;59.69
75668;BME280;64266;48.798;44.756;2023-07-29T12:39:35;100150.63;;;25.52;58.84
75668;BME280;64266;48.798;44.756;2023-07-29T12:44:42;100208.09;;;25.95;55.44
75668;BME280;64266;48.798;44.756;2023-07-29T12:49:45;100226.97;;;26.12;55.93
75668;BME280;64266;48.798;44.756;2023-07-29T12:54:49;100198.75;;;26.05;56.02
75668;BME280;64266;48.798;44.756;2023-07-29T12:59:52;100183.06;;;25.90;56.59
75668;BME280;64266;48.798;44.756;2023-07-29T13:04:55;100176.78;;;25.77;56.68
75668;BME280;64266;48.798;44.756;2023-07-29T13:09:58;100195.78;;;25.77;57.81
75668;BME280;64266;48.798;44.756;2023-07-29T13:15:01;100217.66;;;25.80;58.59
75668;BME280;64266;48.798;44.756;2023-07-29T13:20:09;100225.75;;;25.68;63.14
75668;BME280;64266;48.798;44.756;2023-07-29T13:25:13;100253.19;;;25.08;71.22
75668;BME280;64266;48.798;44.756;2023-07-29T13:30:20;100216.34;;;23.41;84.72
75668;BME280;64266;48.798;44.756;2023-07-29T13:35:25;100207.31;;;22.66;88.26
75668;BME280;64266;48.798;44.756;2023-07-29T13:40:29;100253.53;;;22.65;89.66
75668;BME280;64266;48.798;44.756;2023-07-29T13:45:31;100232.91;;;22.47;90.39
75668;BME280;64266;48.798;44.756;2023-07-29T13:50:34;100235.31;;;22.48;92.97
75668;BME280;64266;48.798;44.756;2023-07-29T13:55:37;100238.06;;;22.57;91.12
75668;BME280;64266;48.798;44.756;2023-07-29T14:00:40;100246.28;;;22.74;91.05
75668;BME280;64266;48.798;44.756;2023-07-29T14:05:50;100224.41;;;22.62;90.58
75668;BME280;64266;48.798;44.756;2023-07-29T14:10:53;100175.16;;;22.43;88.02
75668;BME280;64266;48.798;44.756;2023-07-29T14:15:55;100271.59;;;23.09;82.56
75668;BME280;64266;48.798;44.756;2023-07-29T14:21:02;100275.31;;;23.21;75.92
75668;BME280;64266;48.798;44.756;2023-07-29T14:26:05;100282.19;;;23.28;76.53
75668;BME280;64266;48.798;44.756;2023-07-29T14:31:13;100283.78;;;23.29;72.23
75668;BME280;64266;48.798;44.756;2023-07-29T14:36:17;100251.38;;;23.06;72.52
75668;BME280;64266;48.798;44.756;2023-07-29T14:41:21;100295.59;;;23.41;71.60
75668;BME280;64266;48.798;44.756;2023-07-29T14:46:23;100314.59;;;23.50;72.09
75668;BME280;64266;48.798;44.756;2023-07-29T14:51:29;100266.25;;;23.26;68.62
75668;BME280;64266;48.798;44.756;2023-07-29T14:56:35;100230.63;;;22.93;69.22
75668;BME280;64266;48.798;44.756;2023-07-29T15:01:49;100337.09;;;23.59;69.20
75668;BME280;64266;48.798;44.756;2023-07-29T15:06:55;100230.81;;;22.97;66.73
75668;BME280;64266;48.798;44.756;2023-07-29T15:12:05;100345.69;;;23.61;64.97
75668;BME280;64266;48.798;44.756;2023-07-29T15:17:09;100270.78;;;23.08;66.80
75668;BME280;64266;48.798;44.756;2023-07-29T15:22:17;100289.56;;;23.13;66.38
75668;BME280;64266;48.798;44.756;2023-07-29T15:27:22;100248.53;;;22.81;65.65
75668;BME280;64266;48.798;44.756;2023-07-29T15:32:26;100290.59;;;22.95;67.81
75668;BME280;64266;48.798;44.756;2023-07-29T15:37:36;100312.13;;;23.00;66.54
75668;BME280;64266;48.798;44.756;2023-07-29T15:43:04;100301.72;;;22.85;68.50
75668;BME280;64266;48.798;44.756;2023-07-29T15:48:09;100372.38;;;23.23;68.62
75668;BME280;64266;48.798;44.756;2023-07-29T15:53:27;100354.97;;;23.07;69.36
75668;BME280;64266;48.798;44.756;2023-07-29T15:58:37;100330.94;;;22.83;67.33
75668;BME280;64266;48.798;44.756;2023-07-29T16:03:45;100366.09;;;23.05;68.10
75668;BME280;64266;48.798;44.756;2023-07-29T16:08:48;100386.44;;;23.03;70.16
75668;BME280;64266;48.798;44.756;2023-07-29T16:13:51;100414.63;;;23.10;68.24
75668;BME280;64266;48.798;44.756;2023-07-29T16:18:57;100392.94;;;22.80;66.11
75668;BME280;64266;48.798;44.756;2023-07-29T16:24:03;100415.34;;;22.94;65.45
75668;BME280;64266;48.798;44.756;2023-07-29T16:29:06;100410.59;;;22.77;68.13
75668;BME280;64266;48.798;44.756;2023-07-29T16:34:13;100422.03;;;22.74;68.69
75668;BME280;64266;48.798;44.756;2023-07-29T16:39:16;100447.22;;;22.83;65.99
75668;BME280;64266;48.798;44.756;2023-07-29T16:44:19;100399.44;;;22.43;68.09
75668;BME280;64266;48.798;44.756;2023-07-29T16:49:25;100434.75;;;22.60;67.51
75668;BME280;64266;48.798;44.756;2023-07-29T16:54:28;100362.53;;;22.02;67.80
75668;BME280;64266;48.798;44.756;2023-07-29T16:59:31;100445.31;;;22.48;67.14
75668;BME280;64266;48.798;44.756;2023-07-29T17:04:34;100432.59;;;22.35;66.40
75668;BME280;64266;48.798;44.756;2023-07-29T17:09:46;100426.53;;;22.29;67.06
75668;BME280;64266;48.798;44.756;2023-07-29T17:14:51;100410.91;;;22.12;64.92
75668;BME280;64266;48.798;44.756;2023-07-29T17:19:58;100450.19;;;22.46;64.02
75668;BME280;64266;48.798;44.756;2023-07-29T17:25:03;100508.72;;;22.78;64.09
75668;BME280;64266;48.798;44.756;2023-07-29T17:30:10;100463.50;;;22.56;60.84
75668;BME280;64266;48.798;44.756;2023-07-29T17:35:13;100486.72;;;22.71;62.18
75668;BME280;64266;48.798;44.756;2023-07-29T17:40:16;100477.09;;;22.64;61.84
75668;BME280;64266;48.798;44.756;2023-07-29T17:45:22;100522.22;;;22.91;62.52
75668;BME280;64266;48.798;44.756;2023-07-29T17:50:27;100512.72;;;22.80;61.69
75668;BME280;64266;48.798;44.756;2023-07-29T17:55:41;100454.31;;;22.43;60.59
75668;BME280;64266;48.798;44.756;2023-07-29T18:00:52;100473.13;;;22.35;60.76
75668;BME280;64266;48.798;44.756;2023-07-29T18:05:59;100520.66;;;22.63;61.54
75668;BME280;64266;48.798;44.756;2023-07-29T18:11:07;100491.16;;;22.26;61.17
75668;BME280;64266;48.798;44.756;2023-07-29T18:16:11;100537.47;;;22.46;61.31
75668;BME280;64266;48.798;44.756;2023-07-29T18:21:15;100484.34;;;22.01;63.04
75668;BME280;64266;48.798;44.756;2023-07-29T18:26:19;100524.97;;;22.37;63.59
75668;BME280;64266;48.798;44.756;2023-07-29T18:31:23;100511.28;;;22.20;63.02
75668;BME280;64266;48.798;44.756;2023-07-29T18:36:26;100536.97;;;22.44;62.73
75668;BME280;64266;48.798;44.756;2023-07-29T18:41:32;100538.88;;;22.44;63.21
75668;BME280;64266;48.798;44.756;2023-07-29T18:46:35;100514.97;;;22.37;62.78
75668;BME280;64266;48.798;44.756;2023-07-29T18:51:39;100510.56;;;22.14;62.49
75668;BME280;64266;48.798;44.756;2023-07-29T18:56:42;100528.38;;;22.29;62.95
75668;BME280;64266;48.798;44.756;2023-07-29T19:01:46;100552.59;;;22.34;61.86
75668;BME280;64266;48.798;44.756;2023-07-29T19:06:49;100520.16;;;22.06;62.14
75668;BME280;64266;48.798;44.756;2023-07-29T19:12:03;100514.97;;;21.96;62.39
75668;BME280;64266;48.798;44.756;2023-07-29T19:17:08;100492.28;;;21.65;61.34
75668;BME280;64266;48.798;44.756;2023-07-29T19:22:12;100552.38;;;22.03;61.94
75668;BME280;64266;48.798;44.756;2023-07-29T19:27:26;100492.25;;;21.51;61.80
75668;BME280;64266;48.798;44.756;2023-07-29T19:33:05;100514.47;;;21.62;61.43
75668;BME280;64266;48.798;44.756;2023-07-29T19:38:09;100533.56;;;21.66;61.76
75668;BME280;64266;48.798;44.756;2023-07-29T19:43:13;100567.59;;;21.80;61.18
75668;BME280;64266;48.798;44.756;2023-07-29T19:48:16;100571.50;;;21.74;61.13
75668;BME280;64266;48.798;44.756;2023-07-29T19:53:20;100502.63;;;21.26;61.00
75668;BME280;64266;48.798;44.756;2023-07-29T19:58:23;100538.50;;;21.45;60.12
75668;BME280;64266;48.798;44.756;2023-07-29T20:03:26;100465.41;;;20.90;60.42
75668;BME280;64266;48.798;44.756;2023-07-29T20:08:38;100541.22;;;21.26;59.19
75668;BME280;64266;48.798;44.756;2023-07-29T20:13:44;100582.78;;;21.44;58.54
75668;BME280;64266;48.798;44.756;2023-07-29T20:18:47;100574.47;;;21.40;57.97
75668;BME280;64266;48.798;44.756;2023-07-29T20:23:51;100584.72;;;21.38;57.33
75668;BME280;64266;48.798;44.756;2023-07-29T20:28:58;100603.19;;;21.50;57.33
75668;BME280;64266;48.798;44.756;2023-07-29T20:34:02;100586.34;;;21.39;56.83
75668;BME280;64266;48.798;44.756;2023-07-29T20:39:05;100548.94;;;21.14;56.21
75668;BME280;64266;48.798;44.756;2023-07-29T20:44:10;100583.94;;;21.38;55.57
75668;BME280;64266;48.798;44.756;2023-07-29T20:49:23;100578.91;;;21.31;55.86
75668;BME280;64266;48.798;44.756;2023-07-29T20:54:30;100540.19;;;21.03;55.04
75668;BME280;64266;48.798;44.756;2023-07-29T20:59:33;100602.88;;;21.33;55.56
75668;BME280;64266;48.798;44.756;2023-07-29T21:04:36;100534.78;;;20.85;55.01
75668;BME280;64266;48.798;44.756;2023-07-29T21:09:39;100561.66;;;20.90;54.49
75668;BME280;64266;48.798;44.756;2023-07-29T21:14:41;100605.22;;;21.21;54.73
75668;BME280;64266;48.798;44.756;2023-07-29T21:19:45;100591.91;;;21.05;54.37
75668;BME280;64266;48.798;44.756;2023-07-29T21:24:48;100592.81;;;21.01;54.49
75668;BME280;64266;48.798;44.756;2023-07-29T21:29:51;100598.19;;;21.01;54.89
75668;BME280;64266;48.798;44.756;2023-07-29T21:34:55;100581.41;;;20.85;55.06
75668;BME280;64266;48.798;44.756;2023-07-29T21:40:04;100618.59;;;21.07;55.51
75668;BME280;64266;48.798;44.756;2023-07-29T21:45:10;100616.03;;;20.97;55.03
75668;BME280;64266;48.798;44.756;2023-07-29T21:50:14;100635.41;;;20.99;55.44
75668;BME280;64266;48.798;44.756;2023-07-29T21:55:19;100585.44;;;20.64;55.82
75668;BME280;64266;48.798;44.756;2023-07-29T22:00:22;100625.06;;;20.87;56.26
75668;BME280;64266;48.798;44.756;2023-07-29T22:05:25;100513.19;;;20.19;55.67
75668;BME280;64266;48.798;44.756;2023-07-29T22:10:28;100608.59;;;20.65;57.39
75668;BME280;64266;48.798;44.756;2023-07-29T22:15:35;100647.13;;;20.89;57.07
75668;BME280;64266;48.798;44.756;2023-07-29T22:20:39;100654.41;;;20.89;56.85
75668;BME280;64266;48.798;44.756;2023-07-29T22:26:00;100599.84;;;20.54;56.52
75668;BME280;64266;48.798;44.756;2023-07-29T22:31:08;100640.72;;;20.85;56.97
75668;BME280;64266;48.798;44.756;2023-07-29T22:36:14;100629.59;;;20.68;56.89
75668;BME280;64266;48.798;44.756;2023-07-29T22:41:17;100587.38;;;20.35;57.72
75668;BME280;64266;48.798;44.756;2023-07-29T22:46:20;100655.34;;;20.79;57.64
75668;BME280;64266;48.798;44.756;2023-07-29T22:51:24;100606.97;;;20.45;57.63
75668;BME280;64266;48.798;44.756;2023-07-29T22:56:27;100659.47;;;20.72;58.20
75668;BME280;64266;48.798;44.756;2023-07-29T23:01:31;100660.03;;;20.69;58.41
75668;BME280;64266;48.798;44.756;2023-07-29T23:06:33;100582.41;;;20.18;58.80
75668;BME280;64266;48.798;44.756;2023-07-29T23:11:37;100634.41;;;20.47;58.80
75668;BME280;64266;48.798;44.756;2023-07-29T23:16:41;100643.69;;;20.60;58.38
75668;BME280;64266;48.798;44.756;2023-07-29T23:21:43;100642.59;;;20.61;58.44
75668;BME280;64266;48.798;44.756;2023-07-29T23:26:52;100652.38;;;20.52;57.88
75668;BME280;64266;48.798;44.756;2023-07-29T23:31:57;100645.44;;;20.46;57.88
75668;BME280;64266;48.798;44.756;2023-07-29T23:37:01;100651.38;;;20.48;56.88
75668;BME280;64266;48.798;44.756;2023-07-29T23:42:06;100611.25;;;20.18;56.90
75668;BME280;64266;48.798;44.756;2023-07-29T23:47:09;100609.56;;;20.27;55.89
75668;BME280;64266;48.798;44.756;2023-07-29T23:52:14;100655.03;;;20.57;55.60
75668;BME280;64266;48.798;44.756;2023-07-29T23:57:16;100649.13;;;20.55;55.19
